sensor_id;sensor_type;location;lat;lon;timestamp;pressure;altitude;pressure_sealevel;temperature
20058;BMP180;10189;49.546;7.906;2023-09-19T00:00:40;97650.00;;;18.20
20058;BMP180;10189;49.546;7.906;2023-09-19T00:03:07;97645.00;;;18.20
20058;BMP180;10189;49.546;7.906;2023-09-19T00:05:36;97648.00;;;18.20
20058;BMP180;10189;49.546;7.906;2023-09-19T00:08:02;97648.00;;;18.20
20058;BMP180;10189;49.546;7.906;2023-09-19T00:10:31;97654.00;;;18.20
20058;BMP180;10189;49.546;7.906;2023-09-19T00:12:58;97667.00;;;18.20
20058;BMP180;10189;49.546;7.906;2023-09-19T00:15:28;97657.00;;;18.20
20058;BMP180;10189;49.546;7.906;2023-09-19T00:17:56;97664.00;;;18.20
20058;BMP180;10189;49.546;7.906;2023-09-19T00:20:23;97669.00;;;18.20
20058;BMP180;10189;49.546;7.906;2023-09-19T00:22:51;97663.00;;;18.20
20058;BMP180;10189;49.546;7.906;2023-09-19T00:25:20;97673.00;;;18.20
20058;BMP180;10189;49.546;7.906;2023-09-19T00:27:47;97661.00;;;18.20
20058;BMP180;10189;49.546;7.906;2023-09-19T00:30:17;97662.00;;;18.20
20058;BMP180;10189;49.546;7.906;2023-09-19T00:32:49;97671.00;;;18.20
20058;BMP180;10189;49.546;7.906;2023-09-19T00:35:21;97674.00;;;18.20
20058;BMP180;10189;49.546;7.906;2023-09-19T00:37:51;97669.00;;;18.20
20058;BMP180;10189;49.546;7.906;2023-09-19T00:40:18;97671.00;;;18.10
20058;BMP180;10189;49.546;7.906;2023-09-19T00:42:46;97677.00;;;18.20
20058;BMP180;10189;49.546;7.906;2023-09-19T00:45:15;97675.00;;;18.20
20058;BMP180;10189;49.546;7.906;2023-09-19T00:47:48;97676.00;;;18.20
20058;BMP180;10189;49.546;7.906;2023-09-19T00:50:18;97684.00;;;18.20
20058;BMP180;10189;49.546;7.906;2023-09-19T00:52:47;97684.00;;;18.20
20058;BMP180;10189;49.546;7.906;2023-09-19T00:55:16;97678.00;;;18.20
20058;BMP180;10189;49.546;7.906;2023-09-19T00:57:46;97695.00;;;18.30
20058;BMP180;10189;49.546;7.906;2023-09-19T01:00:13;97676.00;;;18.20
20058;BMP180;10189;49.546;7.906;2023-09-19T01:02:44;97691.00;;;18.30
20058;BMP180;10189;49.546;7.906;2023-09-19T01:05:13;97689.00;;;18.20
20058;BMP180;10189;49.546;7.906;2023-09-19T01:07:38;97698.00;;;18.30
20058;BMP180;10189;49.546;7.906;2023-09-19T01:10:19;97684.00;;;18.20
20058;BMP180;10189;49.546;7.906;2023-09-19T01:13:18;97703.00;;;18.30
20058;BMP180;10189;49.546;7.906;2023-09-19T01:16:11;97709.00;;;18.20
20058;BMP180;10189;49.546;7.906;2023-09-19T01:19:40;97721.00;;;18.30
20058;BMP180;10189;49.546;7.906;2023-09-19T01:22:22;97714.00;;;18.20
20058;BMP180;10189;49.546;7.906;2023-09-19T01:25:20;97717.00;;;18.20
20058;BMP180;10189;49.546;7.906;2023-09-19T01:28:30;97714.00;;;18.20
20058;BMP180;10189;49.546;7.906;2023-09-19T01:31:04;97716.00;;;18.10
20058;BMP180;10189;49.546;7.906;2023-09-19T01:34:01;97714.00;;;18.10
20058;BMP180;10189;49.546;7.906;2023-09-19T01:36:36;97720.00;;;18.00
20058;BMP180;10189;49.546;7.906;2023-09-19T01:39:11;97715.00;;;17.90
20058;BMP180;10189;49.546;7.906;2023-09-19T01:41:56;97719.00;;;17.80
20058;BMP180;10189;49.546;7.906;2023-09-19T01:44:47;97722.00;;;17.70
20058;BMP180;10189;49.546;7.906;2023-09-19T01:47:38;97721.00;;;17.70
20058;BMP180;10189;49.546;7.906;2023-09-19T01:50:30;97719.00;;;17.60
20058;BMP180;10189;49.546;7.906;2023-09-19T01:53:17;97733.00;;;17.70
20058;BMP180;10189;49.546;7.906;2023-09-19T01:55:49;97751.00;;;17.60
20058;BMP180;10189;49.546;7.906;2023-09-19T01:58:39;97744.00;;;17.70
20058;BMP180;10189;49.546;7.906;2023-09-19T02:01:16;97738.00;;;17.70
20058;BMP180;10189;49.546;7.906;2023-09-19T02:03:46;97743.00;;;17.60
20058;BMP180;10189;49.546;7.906;2023-09-19T02:06:17;97730.00;;;17.70
20058;BMP180;10189;49.546;7.906;2023-09-19T02:08:45;97754.00;;;17.60
20058;BMP180;10189;49.546;7.906;2023-09-19T02:11:14;97742.00;;;17.50
20058;BMP180;10189;49.546;7.906;2023-09-19T02:13:41;97749.00;;;17.50
20058;BMP180;10189;49.546;7.906;2023-09-19T02:16:07;97751.00;;;17.40
20058;BMP180;10189;49.546;7.906;2023-09-19T02:18:35;97744.00;;;17.30
20058;BMP180;10189;49.546;7.906;2023-09-19T02:21:02;97757.00;;;17.30
20058;BMP180;10189;49.546;7.906;2023-09-19T02:23:30;97773.00;;;17.20
20058;BMP180;10189;49.546;7.906;2023-09-19T02:25:59;97762.00;;;17.30
20058;BMP180;10189;49.546;7.906;2023-09-19T02:28:29;97771.00;;;17.30
20058;BMP180;10189;49.546;7.906;2023-09-19T02:30:59;97771.00;;;17.30
20058;BMP180;10189;49.546;7.906;2023-09-19T02:33:25;97774.00;;;17.20
20058;BMP180;10189;49.546;7.906;2023-09-19T02:35:56;97766.00;;;17.20
20058;BMP180;10189;49.546;7.906;2023-09-19T02:38:27;97762.00;;;17.20
20058;BMP180;10189;49.546;7.906;2023-09-19T02:40:53;97761.00;;;17.30
20058;BMP180;10189;49.546;7.906;2023-09-19T02:43:21;97761.00;;;17.30
20058;BMP180;10189;49.546;7.906;2023-09-19T02:45:49;97766.00;;;17.20
20058;BMP180;10189;49.546;7.906;2023-09-19T02:48:16;97769.00;;;17.20
20058;BMP180;10189;49.546;7.906;2023-09-19T02:50:43;97776.00;;;17.20
20058;BMP180;10189;49.546;7.906;2023-09-19T02:53:10;97790.00;;;17.20
20058;BMP180;10189;49.546;7.906;2023-09-19T02:55:39;97778.00;;;17.10
20058;BMP180;10189;49.546;7.906;2023-09-19T02:58:07;97781.00;;;17.10
20058;BMP180;10189;49.546;7.906;2023-09-19T03:00:41;97792.00;;;17.00
20058;BMP180;10189;49.546;7.906;2023-09-19T03:03:13;97781.00;;;17.00
20058;BMP180;10189;49.546;7.906;2023-09-19T03:05:41;97780.00;;;16.90
20058;BMP180;10189;49.546;7.906;2023-09-19T03:08:14;97793.00;;;16.80
20058;BMP180;10189;49.546;7.906;2023-09-19T03:10:46;97792.00;;;16.80
20058;BMP180;10189;49.546;7.906;2023-09-19T03:13:14;97792.00;;;16.90
20058;BMP180;10189;49.546;7.906;2023-09-19T03:15:43;97787.00;;;16.70
20058;BMP180;10189;49.546;7.906;2023-09-19T03:18:12;97792.00;;;16.70
20058;BMP180;10189;49.546;7.906;2023-09-19T03:20:38;97795.00;;;16.60
20058;BMP180;10189;49.546;7.906;2023-09-19T03:23:04;97791.00;;;16.60
20058;BMP180;10189;49.546;7.906;2023-09-19T03:25:35;97800.00;;;16.50
20058;BMP180;10189;49.546;7.906;2023-09-19T03:28:03;97800.00;;;16.50
20058;BMP180;10189;49.546;7.906;2023-09-19T03:30:32;97806.00;;;16.50
20058;BMP180;10189;49.546;7.906;2023-09-19T03:33:02;97800.00;;;16.40
20058;BMP180;10189;49.546;7.906;2023-09-19T03:35:30;97812.00;;;16.30
20058;BMP180;10189;49.546;7.906;2023-09-19T03:37:57;97808.00;;;16.30
20058;BMP180;10189;49.546;7.906;2023-09-19T03:40:23;97808.00;;;16.40
20058;BMP180;10189;49.546;7.906;2023-09-19T03:42:51;97818.00;;;16.40
20058;BMP180;10189;49.546;7.906;2023-09-19T03:45:17;97816.00;;;16.40
20058;BMP180;10189;49.546;7.906;2023-09-19T03:47:47;97814.00;;;16.40
20058;BMP180;10189;49.546;7.906;2023-09-19T03:50:15;97821.00;;;16.30
20058;BMP180;10189;49.546;7.906;2023-09-19T03:52:44;97826.00;;;16.40
20058;BMP180;10189;49.546;7.906;2023-09-19T03:55:10;97827.00;;;16.30
20058;BMP180;10189;49.546;7.906;2023-09-19T03:57:38;97823.00;;;16.20
20058;BMP180;10189;49.546;7.906;2023-09-19T04:00:05;97813.00;;;16.20
20058;BMP180;10189;49.546;7.906;2023-09-19T04:02:39;97815.00;;;16.30
20058;BMP180;10189;49.546;7.906;2023-09-19T04:05:06;97819.00;;;16.30
20058;BMP180;10189;49.546;7.906;2023-09-19T04:07:32;97817.00;;;16.30
20058;BMP180;10189;49.546;7.906;2023-09-19T04:09:58;97803.00;;;16.30
20058;BMP180;10189;49.546;7.906;2023-09-19T04:12:23;97809.00;;;16.30
20058;BMP180;10189;49.546;7.906;2023-09-19T04:14:49;97812.00;;;16.20
20058;BMP180;10189;49.546;7.906;2023-09-19T04:17:16;97812.00;;;16.30
20058;BMP180;10189;49.546;7.906;2023-09-19T04:19:42;97819.00;;;16.30
20058;BMP180;10189;49.546;7.906;2023-09-19T04:22:08;97815.00;;;16.30
20058;BMP180;10189;49.546;7.906;2023-09-19T04:24:35;97815.00;;;16.40
20058;BMP180;10189;49.546;7.906;2023-09-19T04:27:01;97811.00;;;16.40
20058;BMP180;10189;49.546;7.906;2023-09-19T04:29:27;97821.00;;;16.40
20058;BMP180;10189;49.546;7.906;2023-09-19T04:31:55;97827.00;;;16.50
20058;BMP180;10189;49.546;7.906;2023-09-19T04:34:28;97836.00;;;16.50
20058;BMP180;10189;49.546;7.906;2023-09-19T04:36:56;97821.00;;;16.60
20058;BMP180;10189;49.546;7.906;2023-09-19T04:39:24;97823.00;;;16.60
20058;BMP180;10189;49.546;7.906;2023-09-19T04:41:53;97822.00;;;16.60
20058;BMP180;10189;49.546;7.906;2023-09-19T04:44:19;97833.00;;;16.60
20058;BMP180;10189;49.546;7.906;2023-09-19T04:46:45;97838.00;;;16.50
20058;BMP180;10189;49.546;7.906;2023-09-19T04:49:12;97834.00;;;16.60
20058;BMP180;10189;49.546;7.906;2023-09-19T04:51:39;97833.00;;;16.50
20058;BMP180;10189;49.546;7.906;2023-09-19T04:54:06;97847.00;;;16.60
20058;BMP180;10189;49.546;7.906;2023-09-19T04:56:32;97851.00;;;16.50
20058;BMP180;10189;49.546;7.906;2023-09-19T04:58:59;97845.00;;;16.50
20058;BMP180;10189;49.546;7.906;2023-09-19T05:01:26;97847.00;;;16.50
20058;BMP180;10189;49.546;7.906;2023-09-19T05:03:52;97850.00;;;16.50
20058;BMP180;10189;49.546;7.906;2023-09-19T05:06:19;97841.00;;;16.40
20058;BMP180;10189;49.546;7.906;2023-09-19T05:08:49;97841.00;;;16.30
20058;BMP180;10189;49.546;7.906;2023-09-19T05:11:19;97844.00;;;16.20
20058;BMP180;10189;49.546;7.906;2023-09-19T05:13:47;97846.00;;;16.10
20058;BMP180;10189;49.546;7.906;2023-09-19T05:16:13;97857.00;;;16.10
20058;BMP180;10189;49.546;7.906;2023-09-19T05:18:39;97868.00;;;16.10
20058;BMP180;10189;49.546;7.906;2023-09-19T05:21:05;97863.00;;;16.10
20058;BMP180;10189;49.546;7.906;2023-09-19T05:23:31;97874.00;;;16.10
20058;BMP180;10189;49.546;7.906;2023-09-19T05:25:57;97869.00;;;16.10
20058;BMP180;10189;49.546;7.906;2023-09-19T05:28:26;97866.00;;;16.20
20058;BMP180;10189;49.546;7.906;2023-09-19T05:30:53;97875.00;;;16.20
20058;BMP180;10189;49.546;7.906;2023-09-19T05:33:19;97876.00;;;16.20
20058;BMP180;10189;49.546;7.906;2023-09-19T05:35:48;97869.00;;;16.30
20058;BMP180;10189;49.546;7.906;2023-09-19T05:38:14;97879.00;;;16.30
20058;BMP180;10189;49.546;7.906;2023-09-19T05:40:45;97877.00;;;16.40
20058;BMP180;10189;49.546;7.906;2023-09-19T05:43:12;97878.00;;;16.40
20058;BMP180;10189;49.546;7.906;2023-09-19T05:45:40;97880.00;;;16.40
20058;BMP180;10189;49.546;7.906;2023-09-19T05:48:14;97880.00;;;16.40
20058;BMP180;10189;49.546;7.906;2023-09-19T05:50:42;97892.00;;;16.50
20058;BMP180;10189;49.546;7.906;2023-09-19T05:53:08;97896.00;;;16.50
20058;BMP180;10189;49.546;7.906;2023-09-19T05:55:40;97906.00;;;16.60
20058;BMP180;10189;49.546;7.906;2023-09-19T05:58:06;97909.00;;;16.60
20058;BMP180;10189;49.546;7.906;2023-09-19T06:00:32;97910.00;;;16.60
20058;BMP180;10189;49.546;7.906;2023-09-19T06:02:59;97914.00;;;16.70
20058;BMP180;10189;49.546;7.906;2023-09-19T06:05:26;97917.00;;;16.70
20058;BMP180;10189;49.546;7.906;2023-09-19T06:07:53;97930.00;;;16.70
20058;BMP180;10189;49.546;7.906;2023-09-19T06:10:20;97930.00;;;16.80
20058;BMP180;10189;49.546;7.906;2023-09-19T06:12:49;97922.00;;;16.70
20058;BMP180;10189;49.546;7.906;2023-09-19T06:15:16;97932.00;;;16.70
20058;BMP180;10189;49.546;7.906;2023-09-19T06:17:52;97929.00;;;16.70
20058;BMP180;10189;49.546;7.906;2023-09-19T06:20:22;97913.00;;;16.80
20058;BMP180;10189;49.546;7.906;2023-09-19T06:22:49;97921.00;;;16.80
20058;BMP180;10189;49.546;7.906;2023-09-19T06:25:16;97911.00;;;16.90
20058;BMP180;10189;49.546;7.906;2023-09-19T06:27:46;97914.00;;;16.90
20058;BMP180;10189;49.546;7.906;2023-09-19T06:30:12;97910.00;;;16.90
20058;BMP180;10189;49.546;7.906;2023-09-19T06:32:40;97919.00;;;16.90
20058;BMP180;10189;49.546;7.906;2023-09-19T06:35:12;97917.00;;;17.00
20058;BMP180;10189;49.546;7.906;2023-09-19T06:37:39;97916.00;;;17.30
20058;BMP180;10189;49.546;7.906;2023-09-19T06:40:11;97926.00;;;17.30
20058;BMP180;10189;49.546;7.906;2023-09-19T06:42:45;97930.00;;;17.40
20058;BMP180;10189;49.546;7.906;2023-09-19T06:45:12;97924.00;;;17.60
20058;BMP180;10189;49.546;7.906;2023-09-19T06:47:47;97930.00;;;17.60
20058;BMP180;10189;49.546;7.906;2023-09-19T06:50:23;97931.00;;;17.70
20058;BMP180;10189;49.546;7.906;2023-09-19T06:52:54;97934.00;;;17.60
20058;BMP180;10189;49.546;7.906;2023-09-19T06:55:22;97928.00;;;17.70
20058;BMP180;10189;49.546;7.906;2023-09-19T06:57:51;97942.00;;;17.70
20058;BMP180;10189;49.546;7.906;2023-09-19T07:00:17;97942.00;;;17.80
20058;BMP180;10189;49.546;7.906;2023-09-19T07:03:07;97948.00;;;17.90
20058;BMP180;10189;49.546;7.906;2023-09-19T07:05:40;97950.00;;;17.90
20058;BMP180;10189;49.546;7.906;2023-09-19T07:08:07;97947.00;;;17.80
20058;BMP180;10189;49.546;7.906;2023-09-19T07:10:35;97950.00;;;17.90
20058;BMP180;10189;49.546;7.906;2023-09-19T07:13:06;97957.00;;;18.00
20058;BMP180;10189;49.546;7.906;2023-09-19T07:15:34;97959.00;;;18.10
20058;BMP180;10189;49.546;7.906;2023-09-19T07:18:07;97967.00;;;18.20
20058;BMP180;10189;49.546;7.906;2023-09-19T07:20:36;97966.00;;;18.50
20058;BMP180;10189;49.546;7.906;2023-09-19T07:23:02;97964.00;;;18.60
20058;BMP180;10189;49.546;7.906;2023-09-19T07:25:29;97961.00;;;18.70
20058;BMP180;10189;49.546;7.906;2023-09-19T07:27:58;97975.00;;;18.70
20058;BMP180;10189;49.546;7.906;2023-09-19T07:30:28;97977.00;;;18.80
20058;BMP180;10189;49.546;7.906;2023-09-19T07:32:53;97984.00;;;18.60
20058;BMP180;10189;49.546;7.906;2023-09-19T07:35:19;97992.00;;;18.70
20058;BMP180;10189;49.546;7.906;2023-09-19T07:37:49;97998.00;;;18.50
20058;BMP180;10189;49.546;7.906;2023-09-19T07:40:19;98006.00;;;18.40
20058;BMP180;10189;49.546;7.906;2023-09-19T07:42:46;98006.00;;;18.40
20058;BMP180;10189;49.546;7.906;2023-09-19T07:45:13;98015.00;;;18.60
20058;BMP180;10189;49.546;7.906;2023-09-19T07:47:47;98014.00;;;18.40
20058;BMP180;10189;49.546;7.906;2023-09-19T07:50:17;98013.00;;;18.20
20058;BMP180;10189;49.546;7.906;2023-09-19T07:52:45;98014.00;;;18.40
20058;BMP180;10189;49.546;7.906;2023-09-19T07:55:12;98013.00;;;18.40
20058;BMP180;10189;49.546;7.906;2023-09-19T07:57:43;98031.00;;;18.40
20058;BMP180;10189;49.546;7.906;2023-09-19T08:00:10;98026.00;;;18.40
20058;BMP180;10189;49.546;7.906;2023-09-19T08:02:43;98027.00;;;18.20
20058;BMP180;10189;49.546;7.906;2023-09-19T08:05:13;98037.00;;;18.30
20058;BMP180;10189;49.546;7.906;2023-09-19T08:07:45;98044.00;;;18.00
20058;BMP180;10189;49.546;7.906;2023-09-19T08:10:22;98045.00;;;18.20
20058;BMP180;10189;49.546;7.906;2023-09-19T08:12:48;98040.00;;;18.30
20058;BMP180;10189;49.546;7.906;2023-09-19T08:15:16;98045.00;;;18.50
20058;BMP180;10189;49.546;7.906;2023-09-19T08:17:43;98036.00;;;18.20
20058;BMP180;10189;49.546;7.906;2023-09-19T08:20:10;98035.00;;;18.30
20058;BMP180;10189;49.546;7.906;2023-09-19T08:22:50;98043.00;;;18.40
20058;BMP180;10189;49.546;7.906;2023-09-19T08:25:23;98044.00;;;18.50
20058;BMP180;10189;49.546;7.906;2023-09-19T08:27:51;98046.00;;;18.60
20058;BMP180;10189;49.546;7.906;2023-09-19T08:30:22;98039.00;;;18.80
20058;BMP180;10189;49.546;7.906;2023-09-19T08:33:00;98039.00;;;18.80
20058;BMP180;10189;49.546;7.906;2023-09-19T08:35:27;98028.00;;;18.80
20058;BMP180;10189;49.546;7.906;2023-09-19T08:37:53;98040.00;;;18.80
20058;BMP180;10189;49.546;7.906;2023-09-19T08:40:21;98042.00;;;19.00
20058;BMP180;10189;49.546;7.906;2023-09-19T08:42:56;98040.00;;;19.00
20058;BMP180;10189;49.546;7.906;2023-09-19T08:45:24;98047.00;;;19.00
20058;BMP180;10189;49.546;7.906;2023-09-19T08:48:22;98036.00;;;19.20
20058;BMP180;10189;49.546;7.906;2023-09-19T08:51:07;98047.00;;;19.20
20058;BMP180;10189;49.546;7.906;2023-09-19T08:53:56;98038.00;;;18.90
20058;BMP180;10189;49.546;7.906;2023-09-19T08:56:26;98047.00;;;18.90
20058;BMP180;10189;49.546;7.906;2023-09-19T08:59:00;98051.00;;;19.10
20058;BMP180;10189;49.546;7.906;2023-09-19T09:01:29;98054.00;;;18.80
20058;BMP180;10189;49.546;7.906;2023-09-19T09:03:58;98045.00;;;18.90
20058;BMP180;10189;49.546;7.906;2023-09-19T09:06:26;98053.00;;;18.90
20058;BMP180;10189;49.546;7.906;2023-09-19T09:08:54;98051.00;;;18.90
20058;BMP180;10189;49.546;7.906;2023-09-19T09:11:21;98056.00;;;18.80
20058;BMP180;10189;49.546;7.906;2023-09-19T09:13:48;98063.00;;;18.90
20058;BMP180;10189;49.546;7.906;2023-09-19T09:16:14;98053.00;;;19.00
20058;BMP180;10189;49.546;7.906;2023-09-19T09:18:45;98061.00;;;19.10
20058;BMP180;10189;49.546;7.906;2023-09-19T09:21:12;98052.00;;;19.00
20058;BMP180;10189;49.546;7.906;2023-09-19T09:23:40;98056.00;;;19.10
20058;BMP180;10189;49.546;7.906;2023-09-19T09:26:06;98050.00;;;18.80
20058;BMP180;10189;49.546;7.906;2023-09-19T09:28:34;98058.00;;;19.00
20058;BMP180;10189;49.546;7.906;2023-09-19T09:31:02;98062.00;;;19.30
20058;BMP180;10189;49.546;7.906;2023-09-19T09:33:36;98064.00;;;19.20
20058;BMP180;10189;49.546;7.906;2023-09-19T09:36:03;98057.00;;;19.10
20058;BMP180;10189;49.546;7.906;2023-09-19T09:38:45;98053.00;;;18.90
20058;BMP180;10189;49.546;7.906;2023-09-19T09:41:12;98066.00;;;19.20
20058;BMP180;10189;49.546;7.906;2023-09-19T09:43:42;98052.00;;;19.30
20058;BMP180;10189;49.546;7.906;2023-09-19T09:46:20;98048.00;;;19.30
20058;BMP180;10189;49.546;7.906;2023-09-19T09:48:57;98046.00;;;19.30
20058;BMP180;10189;49.546;7.906;2023-09-19T09:52:04;98051.00;;;19.30
20058;BMP180;10189;49.546;7.906;2023-09-19T09:54:35;98046.00;;;19.70
20058;BMP180;10189;49.546;7.906;2023-09-19T09:57:08;98048.00;;;19.70
20058;BMP180;10189;49.546;7.906;2023-09-19T09:59:54;98046.00;;;19.60
20058;BMP180;10189;49.546;7.906;2023-09-19T10:02:30;98037.00;;;19.50
20058;BMP180;10189;49.546;7.906;2023-09-19T10:05:16;98042.00;;;19.70
20058;BMP180;10189;49.546;7.906;2023-09-19T10:07:55;98047.00;;;19.60
20058;BMP180;10189;49.546;7.906;2023-09-19T10:10:40;98033.00;;;19.80
20058;BMP180;10189;49.546;7.906;2023-09-19T10:13:12;98041.00;;;20.10
20058;BMP180;10189;49.546;7.906;2023-09-19T10:15:40;98035.00;;;20.60
20058;BMP180;10189;49.546;7.906;2023-09-19T10:18:21;98047.00;;;21.30
20058;BMP180;10189;49.546;7.906;2023-09-19T10:20:47;98035.00;;;21.50
20058;BMP180;10189;49.546;7.906;2023-09-19T10:23:18;98038.00;;;21.60
20058;BMP180;10189;49.546;7.906;2023-09-19T10:25:50;98041.00;;;21.70
20058;BMP180;10189;49.546;7.906;2023-09-19T10:28:18;98038.00;;;21.70
20058;BMP180;10189;49.546;7.906;2023-09-19T10:30:48;98043.00;;;21.70
20058;BMP180;10189;49.546;7.906;2023-09-19T10:33:21;98035.00;;;21.10
20058;BMP180;10189;49.546;7.906;2023-09-19T10:35:51;98034.00;;;20.90
20058;BMP180;10189;49.546;7.906;2023-09-19T10:38:19;98051.00;;;21.10
20058;BMP180;10189;49.546;7.906;2023-09-19T10:40:52;98036.00;;;21.10
20058;BMP180;10189;49.546;7.906;2023-09-19T10:43:21;98037.00;;;21.10
20058;BMP180;10189;49.546;7.906;2023-09-19T10:45:49;98035.00;;;21.20
20058;BMP180;10189;49.546;7.906;2023-09-19T10:48:19;98038.00;;;21.50
20058;BMP180;10189;49.546;7.906;2023-09-19T10:51:08;98035.00;;;21.30
20058;BMP180;10189;49.546;7.906;2023-09-19T10:53:59;98040.00;;;21.20
20058;BMP180;10189;49.546;7.906;2023-09-19T10:56:32;98037.00;;;21.10
20058;BMP180;10189;49.546;7.906;2023-09-19T10:59:09;98030.00;;;21.00
20058;BMP180;10189;49.546;7.906;2023-09-19T11:01:49;98034.00;;;21.10
20058;BMP180;10189;49.546;7.906;2023-09-19T11:04:36;98030.00;;;21.00
20058;BMP180;10189;49.546;7.906;2023-09-19T11:07:13;98033.00;;;20.90
20058;BMP180;10189;49.546;7.906;2023-09-19T11:12:48;98023.00;;;21.70
20058;BMP180;10189;49.546;7.906;2023-09-19T11:26:48;98013.00;;;21.50
20058;BMP180;10189;49.546;7.906;2023-09-19T11:29:30;98015.00;;;21.80
20058;BMP180;10189;49.546;7.906;2023-09-19T11:31:58;98012.00;;;22.30
20058;BMP180;10189;49.546;7.906;2023-09-19T11:39:38;97999.00;;;22.50
20058;BMP180;10189;49.546;7.906;2023-09-19T11:48:24;97998.00;;;21.90
20058;BMP180;10189;49.546;7.906;2023-09-19T11:50:53;97997.00;;;22.10
20058;BMP180;10189;49.546;7.906;2023-09-19T11:53:21;97991.00;;;21.90
20058;BMP180;10189;49.546;7.906;2023-09-19T11:55:49;97999.00;;;21.80
20058;BMP180;10189;49.546;7.906;2023-09-19T11:58:16;97993.00;;;21.80
20058;BMP180;10189;49.546;7.906;2023-09-19T12:00:45;97991.00;;;21.80
20058;BMP180;10189;49.546;7.906;2023-09-19T12:03:12;97990.00;;;21.80
20058;BMP180;10189;49.546;7.906;2023-09-19T12:05:40;97986.00;;;21.50
20058;BMP180;10189;49.546;7.906;2023-09-19T12:08:07;97984.00;;;21.30
20058;BMP180;10189;49.546;7.906;2023-09-19T12:10:48;97981.00;;;21.50
20058;BMP180;10189;49.546;7.906;2023-09-19T12:13:21;97983.00;;;21.80
20058;BMP180;10189;49.546;7.906;2023-09-19T12:15:47;97980.00;;;22.00
20058;BMP180;10189;49.546;7.906;2023-09-19T12:18:29;97997.00;;;22.10
20058;BMP180;10189;49.546;7.906;2023-09-19T12:20:56;97991.00;;;22.10
20058;BMP180;10189;49.546;7.906;2023-09-19T12:23:24;97986.00;;;22.10
20058;BMP180;10189;49.546;7.906;2023-09-19T12:25:52;97978.00;;;22.40
20058;BMP180;10189;49.546;7.906;2023-09-19T12:28:20;97975.00;;;22.60
20058;BMP180;10189;49.546;7.906;2023-09-19T12:30:48;97979.00;;;22.80
20058;BMP180;10189;49.546;7.906;2023-09-19T12:33:19;97976.00;;;22.70
20058;BMP180;10189;49.546;7.906;2023-09-19T12:35:51;97988.00;;;22.30
20058;BMP180;10189;49.546;7.906;2023-09-19T12:38:28;97986.00;;;22.10
20058;BMP180;10189;49.546;7.906;2023-09-19T12:40:58;97972.00;;;22.00
20058;BMP180;10189;49.546;7.906;2023-09-19T12:43:26;97974.00;;;21.80
20058;BMP180;10189;49.546;7.906;2023-09-19T12:45:53;97967.00;;;22.10
20058;BMP180;10189;49.546;7.906;2023-09-19T12:48:24;97970.00;;;22.00
20058;BMP180;10189;49.546;7.906;2023-09-19T12:53:26;97965.00;;;22.30
20058;BMP180;10189;49.546;7.906;2023-09-19T12:55:59;97958.00;;;22.60
20058;BMP180;10189;49.546;7.906;2023-09-19T12:58:26;97948.00;;;23.00
20058;BMP180;10189;49.546;7.906;2023-09-19T13:00:54;97946.00;;;23.30
20058;BMP180;10189;49.546;7.906;2023-09-19T13:05:59;97948.00;;;23.10
20058;BMP180;10189;49.546;7.906;2023-09-19T13:08:38;97948.00;;;23.00
20058;BMP180;10189;49.546;7.906;2023-09-19T13:11:13;97956.00;;;23.00
20058;BMP180;10189;49.546;7.906;2023-09-19T13:13:44;97954.00;;;22.60
20058;BMP180;10189;49.546;7.906;2023-09-19T13:16:11;97937.00;;;22.50
20058;BMP180;10189;49.546;7.906;2023-09-19T13:18:58;97949.00;;;22.80
20058;BMP180;10189;49.546;7.906;2023-09-19T13:21:33;97942.00;;;23.00
20058;BMP180;10189;49.546;7.906;2023-09-19T13:24:24;97936.00;;;23.00
20058;BMP180;10189;49.546;7.906;2023-09-19T13:26:56;97948.00;;;22.60
20058;BMP180;10189;49.546;7.906;2023-09-19T13:29:23;97944.00;;;22.80
20058;BMP180;10189;49.546;7.906;2023-09-19T13:31:52;97945.00;;;23.00
20058;BMP180;10189;49.546;7.906;2023-09-19T13:34:19;97947.00;;;23.50
20058;BMP180;10189;49.546;7.906;2023-09-19T13:36:46;97946.00;;;23.50
20058;BMP180;10189;49.546;7.906;2023-09-19T13:39:16;97934.00;;;23.10
20058;BMP180;10189;49.546;7.906;2023-09-19T13:41:47;97946.00;;;23.30
20058;BMP180;10189;49.546;7.906;2023-09-19T13:44:14;97946.00;;;23.40
20058;BMP180;10189;49.546;7.906;2023-09-19T13:46:40;97942.00;;;23.10
20058;BMP180;10189;49.546;7.906;2023-09-19T13:49:09;97940.00;;;22.90
20058;BMP180;10189;49.546;7.906;2023-09-19T13:51:35;97940.00;;;23.30
20058;BMP180;10189;49.546;7.906;2023-09-19T13:54:01;97934.00;;;23.30
20058;BMP180;10189;49.546;7.906;2023-09-19T13:56:27;97932.00;;;23.30
20058;BMP180;10189;49.546;7.906;2023-09-19T13:58:57;97935.00;;;23.40
20058;BMP180;10189;49.546;7.906;2023-09-19T14:01:23;97929.00;;;23.30
20058;BMP180;10189;49.546;7.906;2023-09-19T14:03:49;97930.00;;;23.50
20058;BMP180;10189;49.546;7.906;2023-09-19T14:06:17;97929.00;;;23.50
20058;BMP180;10189;49.546;7.906;2023-09-19T14:08:44;97921.00;;;23.60
20058;BMP180;10189;49.546;7.906;2023-09-19T14:11:14;97925.00;;;23.10
20058;BMP180;10189;49.546;7.906;2023-09-19T14:13:40;97919.00;;;23.20
20058;BMP180;10189;49.546;7.906;2023-09-19T14:16:08;97934.00;;;23.30
20058;BMP180;10189;49.546;7.906;2023-09-19T14:18:35;97924.00;;;23.40
20058;BMP180;10189;49.546;7.906;2023-09-19T14:21:05;97923.00;;;23.40
20058;BMP180;10189;49.546;7.906;2023-09-19T14:23:38;97927.00;;;23.30
20058;BMP180;10189;49.546;7.906;2023-09-19T14:26:04;97926.00;;;22.90
20058;BMP180;10189;49.546;7.906;2023-09-19T14:28:33;97932.00;;;22.90
20058;BMP180;10189;49.546;7.906;2023-09-19T14:31:10;97926.00;;;22.90
20058;BMP180;10189;49.546;7.906;2023-09-19T14:33:37;97918.00;;;22.80
20058;BMP180;10189;49.546;7.906;2023-09-19T14:36:08;97929.00;;;22.60
20058;BMP180;10189;49.546;7.906;2023-09-19T14:38:37;97920.00;;;22.60
20058;BMP180;10189;49.546;7.906;2023-09-19T14:41:05;97922.00;;;22.70
20058;BMP180;10189;49.546;7.906;2023-09-19T14:43:32;97909.00;;;22.90
20058;BMP180;10189;49.546;7.906;2023-09-19T14:46:07;97912.00;;;23.00
20058;BMP180;10189;49.546;7.906;2023-09-19T14:48:38;97921.00;;;22.80
20058;BMP180;10189;49.546;7.906;2023-09-19T14:51:06;97921.00;;;22.70
20058;BMP180;10189;49.546;7.906;2023-09-19T14:53:34;97917.00;;;22.40
20058;BMP180;10189;49.546;7.906;2023-09-19T14:56:04;97905.00;;;22.50
20058;BMP180;10189;49.546;7.906;2023-09-19T14:58:32;97905.00;;;22.10
20058;BMP180;10189;49.546;7.906;2023-09-19T15:01:12;97906.00;;;22.50